Time;durP1;ratioP1;P1;durP2;ratioP2;P2;SDS_P1;SDS_P2;PMS_P1;PMS_P2;Temp;Humidity;BMP_temperature;BMP_pressure;BME280_temperature;BME280_humidity;BME280_pressure;Samples;Min_cycle;Max_cycle;Signal;HPM_P1;HPM_P2
2021/07/05 00:00:14;;;;;;;8.25;7.15;;;;;;;19.49;71.71;100169.09;5084918;28;20020;-71
2021/07/05 00:02:40;;;;;;;8.07;7.05;;;;;;;19.53;71.53;100160.97;5086097;28;20475;-70
2021/07/05 00:05:07;;;;;;;8.15;6.97;;;;;;;19.44;71.84;100164.88;5086175;28;20025;-71
2021/07/05 00:07:33;;;;;;;6.82;5.63;;;;;;;19.46;71.99;100162.19;5086158;28;20025;-70
2021/07/05 00:09:58;;;;;;;8.35;7.15;;;;;;;19.42;72.29;100164.13;5086037;28;20039;-71
2021/07/05 00:12:24;;;;;;;7.72;6.45;;;;;;;19.42;72.15;100165.91;5086015;28;20130;-71
2021/07/05 00:14:49;;;;;;;8.55;7.15;;;;;;;19.41;72.29;100154.50;5086012;28;20043;-71
2021/07/05 00:17:15;;;;;;;8.45;6.95;;;;;;;19.37;72.43;100152.97;5084467;28;20033;-71
2021/07/05 00:19:41;;;;;;;10.45;7.03;;;;;;;19.40;72.45;100167.75;5085731;28;20032;-70
2021/07/05 00:22:07;;;;;;;11.13;7.28;;;;;;;19.34;72.69;100154.91;5085670;28;20058;-71
2021/07/05 00:24:33;;;;;;;8.48;6.93;;;;;;;19.34;72.91;100149.63;5085856;28;20047;-71
2021/07/05 00:26:59;;;;;;;7.85;7.05;;;;;;;19.29;73.00;100156.00;5085726;28;20059;-70
2021/07/05 00:29:24;;;;;;;8.38;6.60;;;;;;;19.27;73.39;100144.69;5085223;28;20028;-71
2021/07/05 00:31:50;;;;;;;8.60;6.90;;;;;;;19.23;73.58;100145.75;5084255;28;20091;-71
2021/07/05 00:34:15;;;;;;;8.23;7.40;;;;;;;19.27;73.06;100143.81;5085664;28;20025;-71
2021/07/05 00:36:41;;;;;;;11.85;7.38;;;;;;;19.22;73.35;100137.94;5085666;28;20025;-70
2021/07/05 00:39:06;;;;;;;9.48;7.20;;;;;;;19.23;73.49;100134.38;5084287;28;20024;-71
2021/07/05 00:41:32;;;;;;;9.38;7.13;;;;;;;19.21;73.73;100137.09;5084530;28;20230;-74
2021/07/05 00:43:58;;;;;;;8.68;7.72;;;;;;;19.23;73.41;100135.25;5085022;28;20024;-76
2021/07/05 00:46:25;;;;;;;11.80;7.10;;;;;;;19.18;73.81;100132.84;5085460;28;20020;-74
2021/07/05 00:48:51;;;;;;;10.48;8.20;;;;;;;19.19;73.58;100133.66;5085105;28;20041;-74
2021/07/05 00:51:17;;;;;;;9.45;7.43;;;;;;;19.21;73.58;100123.94;5085336;28;20029;-75
2021/07/05 00:53:44;;;;;;;8.43;6.63;;;;;;;19.22;73.75;100125.63;5085227;28;20028;-73
2021/07/05 00:56:10;;;;;;;9.45;6.57;;;;;;;19.19;73.82;100137.16;5085193;28;20080;-74
2021/07/05 00:58:35;;;;;;;8.80;7.28;;;;;;;19.17;73.88;100131.13;5083894;28;20496;-73
2021/07/05 01:01:00;;;;;;;8.73;7.72;;;;;;;19.19;73.97;100124.00;5085091;28;20477;-74
2021/07/05 01:03:26;;;;;;;9.82;7.70;;;;;;;19.17;74.01;100135.53;5085032;28;20036;-74
2021/07/05 01:05:51;;;;;;;8.30;6.57;;;;;;;19.16;74.14;100134.69;5083456;28;20016;-74
2021/07/05 01:08:17;;;;;;;11.32;7.82;;;;;;;19.20;73.82;100136.22;5083514;28;20012;-73
2021/07/05 01:10:42;;;;;;;9.18;7.63;;;;;;;19.19;74.22;100138.94;5085018;28;20047;-75
2021/07/05 01:13:07;;;;;;;8.57;6.70;;;;;;;19.23;73.94;100137.88;5084972;28;20028;-73
2021/07/05 01:15:34;;;;;;;8.00;7.07;;;;;;;19.18;74.08;100138.09;5083468;28;20173;-73
2021/07/05 01:18:03;;;;;;;12.18;8.07;;;;;;;19.22;73.95;100132.69;5084789;28;20025;-74
2021/07/05 01:20:30;;;;;;;9.65;8.15;;;;;;;19.18;73.97;100130.22;5084944;28;20102;-74
2021/07/05 01:22:56;;;;;;;10.40;7.57;;;;;;;19.20;73.79;100130.97;5084495;28;20080;-73
2021/07/05 01:25:24;;;;;;;11.38;7.53;;;;;;;19.12;73.96;100112.06;5083358;28;20025;-73
2021/07/05 01:27:51;;;;;;;8.98;7.60;;;;;;;19.19;73.77;100112.63;5083284;28;20507;-74
2021/07/05 01:30:18;;;;;;;8.45;7.53;;;;;;;19.13;74.02;100105.88;5084824;28;20016;-74
2021/07/05 01:32:47;;;;;;;11.45;7.80;;;;;;;19.26;73.54;100121.06;5083038;28;20031;-73
2021/07/05 01:35:13;;;;;;;8.55;7.25;;;;;;;19.20;73.86;100116.97;5084529;28;20024;-74
2021/07/05 01:37:39;;;;;;;10.00;7.63;;;;;;;19.19;73.94;100115.25;5084331;28;20024;-74
2021/07/05 01:40:08;;;;;;;10.48;8.38;;;;;;;19.22;73.66;100115.09;5084373;28;20027;-74
2021/07/05 01:42:34;;;;;;;10.38;7.65;;;;;;;19.18;73.67;100108.28;5084139;28;20387;-74
2021/07/05 01:45:00;;;;;;;12.40;8.35;;;;;;;19.18;73.74;100103.88;5084238;28;20020;-74
2021/07/05 01:47:25;;;;;;;9.77;7.97;;;;;;;19.19;73.63;100104.72;5084419;28;20062;-74
2021/07/05 01:49:51;;;;;;;10.13;7.43;;;;;;;19.22;73.63;100112.47;5084071;28;20064;-74
2021/07/05 01:52:16;;;;;;;9.65;8.25;;;;;;;19.20;73.68;100115.16;5084022;28;20142;-73
2021/07/05 01:54:42;;;;;;;8.95;7.60;;;;;;;19.16;73.87;100118.03;5083984;28;20036;-74
2021/07/05 01:57:26;;;;;;;9.05;7.45;;;;;;;19.18;73.79;100110.91;5083969;28;20413;-74
2021/07/05 02:00:00;;;;;;;8.70;7.03;;;;;;;19.18;73.69;100110.91;5084106;28;20023;-73
2021/07/05 02:02:26;;;;;;;10.23;7.72;;;;;;;19.15;73.80;100122.44;5083971;28;20044;-73
2021/07/05 02:04:52;;;;;;;10.60;8.20;;;;;;;19.07;73.86;100112.25;5083658;28;20089;-73
2021/07/05 02:07:18;;;;;;;9.98;7.90;;;;;;;19.07;74.06;100130.66;5083963;28;20020;-73
2021/07/05 02:09:44;;;;;;;9.45;7.85;;;;;;;19.02;74.27;100116.06;5082667;28;20042;-73
2021/07/05 02:12:11;;;;;;;9.85;7.35;;;;;;;18.99;74.16;100117.06;5083627;28;20024;-74
2021/07/05 02:14:37;;;;;;;11.55;8.48;;;;;;;19.03;74.16;100118.59;5083894;28;20024;-73
2021/07/05 02:17:03;;;;;;;8.38;7.38;;;;;;;18.91;74.44;100109.50;5083611;28;20064;-73
2021/07/05 02:19:28;;;;;;;9.50;7.80;;;;;;;18.94;74.14;100119.06;5083828;28;20051;-74
2021/07/05 02:21:54;;;;;;;10.05;7.70;;;;;;;18.94;74.38;100119.06;5083562;28;20028;-73
2021/07/05 02:24:19;;;;;;;8.80;6.88;;;;;;;19.00;73.88;100113.50;5083601;28;20024;-74
2021/07/05 02:26:45;;;;;;;9.07;7.60;;;;;;;18.98;74.11;100115.34;5083572;28;20101;-74
2021/07/05 02:29:11;;;;;;;8.75;7.35;;;;;;;18.94;74.29;100119.06;5083623;28;20023;-74
2021/07/05 02:31:36;;;;;;;8.95;7.60;;;;;;;18.93;74.16;100110.31;5083638;28;20419;-73
2021/07/05 02:34:03;;;;;;;9.65;7.65;;;;;;;18.90;74.38;100117.47;5083566;28;20028;-74
2021/07/05 02:36:29;;;;;;;10.52;7.95;;;;;;;18.95;74.23;100118.13;5083466;28;20050;-72
2021/07/05 02:38:54;;;;;;;12.60;8.65;;;;;;;18.86;74.69;100111.53;5083460;28;20028;-75
2021/07/05 02:41:20;;;;;;;10.18;7.78;;;;;;;18.88;74.60;100120.19;5081901;28;20024;-74
2021/07/05 02:43:45;;;;;;;11.00;8.27;;;;;;;18.86;74.85;100121.19;5083621;28;20095;-73
2021/07/05 02:46:12;;;;;;;9.52;7.28;;;;;;;18.86;75.32;100126.47;5083315;28;20431;-74
2021/07/05 02:48:41;;;;;;;11.05;7.78;;;;;;;18.81;75.30;100114.38;5083251;28;20045;-73
2021/07/05 02:51:08;;;;;;;9.13;7.93;;;;;;;18.81;75.52;100117.03;5082940;28;20048;-73
2021/07/05 02:53:34;;;;;;;10.32;8.13;;;;;;;18.81;75.44;100119.66;5081623;28;20157;-74
2021/07/05 02:56:00;;;;;;;10.68;8.68;;;;;;;18.84;75.38;100118.63;5083399;28;20080;-74
2021/07/05 02:58:26;;;;;;;10.98;8.88;;;;;;;18.86;75.48;100114.16;5083297;28;20181;-75
2021/07/05 03:00:54;;;;;;;12.18;8.65;;;;;;;18.87;75.52;100112.38;5081949;28;20024;-75
2021/07/05 03:03:21;;;;;;;9.45;7.63;;;;;;;18.94;75.18;100108.53;5081900;28;20027;-73
2021/07/05 03:05:47;;;;;;;10.15;8.25;;;;;;;18.92;75.33;100105.13;5083368;28;20161;-74
2021/07/05 03:08:12;;;;;;;13.77;8.55;;;;;;;19.02;75.32;100114.28;5083168;28;20046;-74
2021/07/05 03:10:39;;;;;;;11.15;8.05;;;;;;;19.07;75.01;100109.63;5083054;28;20028;-74
2021/07/05 03:13:07;;;;;;;10.80;8.13;;;;;;;19.23;74.16;100113.31;5081567;28;20053;-73
2021/07/05 03:15:33;;;;;;;11.48;7.40;;;;;;;19.28;74.48;100112.16;5081808;28;20060;-74
2021/07/05 03:17:59;;;;;;;9.77;7.20;;;;;;;19.35;73.93;100106.59;5081598;28;20032;-74
2021/07/05 03:20:27;;;;;;;8.50;7.22;;;;;;;19.54;73.46;100104.72;5083092;28;20027;-73
2021/07/05 03:22:54;;;;;;;8.32;7.35;;;;;;;19.65;73.22;100106.81;5082788;28;20024;-73
2021/07/05 03:25:22;;;;;;;7.55;6.65;;;;;;;19.72;72.55;100104.72;5082812;28;20046;-73
2021/07/05 03:27:48;;;;;;;9.65;8.00;;;;;;;19.77;72.56;100107.09;5083029;28;20032;-73
2021/07/05 03:30:16;;;;;;;11.95;8.23;;;;;;;19.86;72.28;100108.41;5083015;28;20537;-75
2021/07/05 03:32:42;;;;;;;9.73;8.30;;;;;;;19.94;72.54;100116.75;5082645;28;20016;-74
2021/07/05 03:35:10;;;;;;;8.48;6.93;;;;;;;20.33;72.70;100120.03;5083064;28;20078;-74
2021/07/05 03:37:36;;;;;;;12.75;8.23;;;;;;;20.84;71.39;100118.16;5082760;28;20020;-74
2021/07/05 03:40:04;;;;;;;11.48;6.63;;;;;;;21.28;70.01;100112.13;5081587;28;20090;-75
2021/07/05 03:42:29;;;;;;;8.48;6.95;;;;;;;21.68;68.49;100116.00;5082710;28;20021;-74
2021/07/05 03:44:55;;;;;;;7.85;6.63;;;;;;;21.82;66.16;100109.06;5081431;28;20384;-74
2021/07/05 03:47:20;;;;;;;9.38;7.22;;;;;;;21.75;66.21;100111.19;5081683;28;20182;-75
2021/07/05 03:49:46;;;;;;;7.85;7.05;;;;;;;21.71;65.58;100114.97;5082548;28;20590;-75
2021/07/05 03:52:11;;;;;;;9.90;7.38;;;;;;;21.54;65.91;100117.69;5082588;28;20443;-74
2021/07/05 03:54:37;;;;;;;11.20;8.45;;;;;;;21.49;65.62;100117.09;5082862;28;20558;-75
2021/07/05 03:57:06;;;;;;;9.77;8.40;;;;;;;21.38;65.86;100112.47;5082641;28;20027;-75
2021/07/05 03:59:31;;;;;;;9.43;7.43;;;;;;;21.39;65.85;100122.06;5081207;28;20051;-76
2021/07/05 04:01:56;;;;;;;8.80;7.90;;;;;;;21.52;65.07;100119.56;5082770;28;20025;-76
2021/07/05 04:04:22;;;;;;;9.05;7.63;;;;;;;21.52;65.29;100113.41;5082833;28;20028;-72
2021/07/05 04:06:48;;;;;;;9.75;8.18;;;;;;;21.55;65.39;100116.72;5086122;28;20276;-76
2021/07/05 04:09:13;;;;;;;13.02;9.23;;;;;;;21.64;65.44;100115.34;5085979;28;20028;-77
2021/07/05 04:11:38;;;;;;;8.85;7.95;;;;;;;21.75;64.77;100100.63;5085873;28;20024;-73
2021/07/05 04:14:24;;;;;;;10.02;8.07;;;;;;;21.74;64.35;100106.88;5086050;28;20414;-75
2021/07/05 04:16:52;;;;;;;9.52;8.20;;;;;;;21.57;64.60;100110.50;5084874;28;20436;-75
2021/07/05 04:19:18;;;;;;;12.82;8.43;;;;;;;21.45;65.13;100112.94;5085774;28;20016;-76
2021/07/05 04:21:43;;;;;;;8.50;7.20;;;;;;;21.49;64.90;100108.31;5085707;28;20071;-75
2021/07/05 04:24:11;;;;;;;10.68;7.63;;;;;;;21.53;65.02;100109.84;5085905;28;20036;-73
2021/07/05 04:26:37;;;;;;;10.10;7.72;;;;;;;21.75;65.01;100112.06;5084382;28;20097;-72
2021/07/05 04:29:05;;;;;;;9.48;7.22;;;;;;;22.20;64.31;100113.78;5085819;28;20020;-72
2021/07/05 04:31:30;;;;;;;8.30;6.97;;;;;;;22.58;63.34;100116.75;5084351;28;20112;-74
2021/07/05 04:33:56;;;;;;;14.23;7.78;;;;;;;22.97;62.71;100111.66;5085569;28;20021;-75
2021/07/05 04:36:21;;;;;;;8.38;7.45;;;;;;;23.47;61.08;100109.25;5085573;28;20020;-75
2021/07/05 04:38:47;;;;;;;10.23;7.72;;;;;;;23.75;59.67;100112.66;5085261;28;20030;-72
2021/07/05 04:41:12;;;;;;;9.02;7.25;;;;;;;24.01;58.72;100111.81;5085726;28;20055;-70
2021/07/05 04:43:37;;;;;;;7.80;7.03;;;;;;;24.16;58.55;100104.59;5085430;28;20055;-70
2021/07/05 04:46:05;;;;;;;9.88;7.40;;;;;;;24.18;57.68;100112.44;5085438;28;20031;-75
2021/07/05 04:48:33;;;;;;;10.07;7.30;;;;;;;23.92;57.12;100108.00;5085285;28;20016;-74
2021/07/05 04:51:00;;;;;;;10.73;7.97;;;;;;;23.44;58.05;100113.91;5085275;28;20055;-73
2021/07/05 04:53:26;;;;;;;9.60;7.35;;;;;;;23.08;58.82;100116.25;5085429;28;20115;-73
2021/07/05 04:55:53;;;;;;;8.45;7.55;;;;;;;22.93;59.76;100112.78;5085606;28;20052;-76
2021/07/05 04:58:18;;;;;;;10.82;7.68;;;;;;;22.74;60.27;100114.84;5085431;28;20051;-75
2021/07/05 05:00:44;;;;;;;9.70;7.05;;;;;;;22.60;60.54;100115.75;5085364;28;20016;-75
2021/07/05 05:03:09;;;;;;;9.18;8.05;;;;;;;22.38;61.08;100098.56;5085259;28;20492;-75
2021/07/05 05:05:35;;;;;;;11.40;7.43;;;;;;;22.28;61.67;100097.44;5085218;28;20081;-74
2021/07/05 05:08:00;;;;;;;9.50;7.43;;;;;;;22.21;61.84;100096.13;5085111;28;20027;-74
2021/07/05 05:10:27;;;;;;;10.50;8.30;;;;;;;22.12;62.47;100090.47;5085155;28;20028;-74
2021/07/05 05:12:53;;;;;;;9.07;8.00;;;;;;;22.23;62.05;100087.16;5084907;28;20028;-73
2021/07/05 05:15:22;;;;;;;9.77;8.50;;;;;;;22.12;62.29;100081.69;5084984;28;20028;-75
2021/07/05 05:17:48;;;;;;;11.25;7.85;;;;;;;22.17;62.50;100090.19;5084711;28;20020;-74
2021/07/05 05:20:16;;;;;;;10.30;7.90;;;;;;;22.26;61.92;100076.41;5084752;28;20327;-73
2021/07/05 05:22:41;;;;;;;14.05;6.97;;;;;;;22.31;61.21;100072.59;5084599;28;20024;-73
2021/07/05 05:25:09;;;;;;;10.35;7.63;;;;;;;22.26;61.31;100075.53;5084824;28;20610;-74
2021/07/05 05:27:34;;;;;;;8.23;7.25;;;;;;;22.14;61.61;100077.16;5084731;28;20044;-74
2021/07/05 05:30:01;;;;;;;10.13;7.53;;;;;;;22.09;61.82;100069.53;5084805;28;20020;-74
2021/07/05 05:32:26;;;;;;;8.88;8.00;;;;;;;22.02;62.16;100071.69;5084615;28;20024;-76
2021/07/05 05:34:52;;;;;;;9.57;7.00;;;;;;;21.96;62.54;100073.88;5084553;28;20084;-75
2021/07/05 05:37:17;;;;;;;7.75;6.95;;;;;;;21.99;62.56;100078.97;5084359;28;20020;-76
2021/07/05 05:39:43;;;;;;;10.13;7.50;;;;;;;21.88;62.34;100076.97;5084342;28;20029;-74
2021/07/05 05:42:08;;;;;;;9.05;7.30;;;;;;;21.92;62.67;100067.91;5084186;28;20016;-74
2021/07/05 05:44:34;;;;;;;8.95;6.95;;;;;;;22.04;63.21;100071.59;5084428;28;20080;-74
2021/07/05 05:46:59;;;;;;;8.70;6.82;;;;;;;22.39;61.62;100067.69;5084444;28;20056;-74
2021/07/05 05:49:25;;;;;;;8.02;6.85;;;;;;;22.59;62.36;100070.84;5084082;28;20070;-72
2021/07/05 05:51:50;;;;;;;11.32;7.03;;;;;;;22.93;60.41;100062.50;5084223;28;20036;-72
2021/07/05 05:54:16;;;;;;;9.68;7.03;;;;;;;22.81;59.81;100059.75;5084194;28;20028;-75
2021/07/05 05:56:42;;;;;;;7.22;5.80;;;;;;;22.70;59.69;100063.06;5084336;28;20032;-72
2021/07/05 05:59:10;;;;;;;7.20;6.50;;;;;;;22.53;59.84;100049.13;5084073;28;20247;-74
2021/07/05 06:01:38;;;;;;;10.07;7.47;;;;;;;22.30;60.84;100050.59;5084131;28;20086;-74
2021/07/05 06:04:04;;;;;;;9.55;6.80;;;;;;;22.16;60.86;100049.69;5084430;28;20036;-74
2021/07/05 06:06:29;;;;;;;8.45;6.00;;;;;;;22.05;61.16;100052.16;5083997;28;20028;-75
2021/07/05 06:08:55;;;;;;;10.65;6.78;;;;;;;21.94;61.17;100044.91;5083953;28;20020;-75
2021/07/05 06:11:20;;;;;;;7.88;6.53;;;;;;;21.90;60.55;100038.94;5082671;28;20024;-74
2021/07/05 06:13:47;;;;;;;9.00;6.47;;;;;;;21.72;61.44;100046.19;5083889;28;20025;-75
2021/07/05 06:16:12;;;;;;;7.43;6.57;;;;;;;21.71;62.11;100044.47;5083808;28;20085;-75
2021/07/05 06:18:41;;;;;;;8.52;6.97;;;;;;;21.78;62.04;100039.72;5083354;28;20024;-74
2021/07/05 06:21:07;;;;;;;10.93;6.72;;;;;;;21.77;61.61;100033.56;5083651;28;20024;-76
2021/07/05 06:23:32;;;;;;;9.85;7.38;;;;;;;21.75;61.96;100040.72;5083909;28;20024;-74
2021/07/05 06:26:03;;;;;;;8.85;6.32;;;;;;;21.76;61.96;100028.34;5083745;28;20484;-74
2021/07/05 06:28:34;;;;;;;9.83;7.57;;;;;;;21.92;61.85;100031.78;5081766;28;20021;-75
2021/07/05 06:31:01;;;;;;;9.20;7.00;;;;;;;22.20;61.40;100038.91;5083283;28;20095;-75
2021/07/05 06:33:30;;;;;;;7.95;6.07;;;;;;;22.44;60.58;100027.72;5083521;28;20018;-74
2021/07/05 06:35:56;;;;;;;10.65;6.35;;;;;;;22.59;60.27;100026.75;5083841;28;20114;-74
2021/07/05 06:38:22;;;;;;;7.57;6.68;;;;;;;22.84;59.68;100026.94;5083015;28;20036;-75
2021/07/05 06:40:49;;;;;;;9.80;6.18;;;;;;;22.93;59.33;100015.72;5081978;28;20060;-75
2021/07/05 06:43:16;;;;;;;8.65;6.63;;;;;;;23.07;58.65;100016.59;5098954;28;20020;-73
2021/07/05 06:45:42;;;;;;;10.05;6.25;;;;;;;23.05;57.98;100023.78;5083648;28;20024;-75
2021/07/05 06:48:08;;;;;;;7.05;6.22;;;;;;;22.91;58.16;100022.91;5083465;28;20016;-74
2021/07/05 06:50:34;;;;;;;9.93;7.22;;;;;;;22.72;58.35;100023.28;5083404;28;20063;-73
2021/07/05 06:52:59;;;;;;;6.57;5.78;;;;;;;22.60;58.92;100020.50;5083215;28;20032;-73
2021/07/05 06:55:25;;;;;;;9.02;7.20;;;;;;;22.58;58.85;100027.66;5083221;28;20029;-73
2021/07/05 06:57:54;;;;;;;9.68;6.75;;;;;;;22.48;59.03;100034.47;5083372;28;20085;-74
2021/07/05 07:00:25;;;;;;;8.35;7.13;;;;;;;22.47;59.10;100035.44;5083120;28;20158;-74
2021/07/05 07:02:51;;;;;;;7.60;6.23;;;;;;;22.48;58.92;100038.00;5083242;28;20025;-74
2021/07/05 07:05:19;;;;;;;8.02;6.70;;;;;;;22.42;58.48;100033.09;5083454;28;20267;-75
2021/07/05 07:07:47;;;;;;;11.45;6.03;;;;;;;22.37;58.88;100024.59;5083046;28;20022;-73
2021/07/05 07:10:15;;;;;;;7.03;5.78;;;;;;;22.46;58.83;100023.19;5083189;28;20020;-75
2021/07/05 07:12:45;;;;;;;7.95;6.03;;;;;;;22.40;58.47;100016.47;5082953;28;20084;-75
2021/07/05 07:15:12;;;;;;;7.32;6.63;;;;;;;22.38;58.50;100013.09;5083202;28;20017;-75
2021/07/05 07:17:42;;;;;;;6.75;6.07;;;;;;;22.39;58.58;100006.84;5083010;28;20016;-74
2021/07/05 07:20:10;;;;;;;8.70;6.60;;;;;;;22.42;58.33;100025.16;5083192;28;20052;-74
2021/07/05 07:22:36;;;;;;;7.50;6.15;;;;;;;22.43;58.12;100016.28;5081299;28;20024;-75
2021/07/05 07:25:03;;;;;;;7.38;6.53;;;;;;;22.27;58.31;99997.91;5082855;28;20087;-74
2021/07/05 07:27:29;;;;;;;7.85;6.50;;;;;;;22.26;58.09;100009.44;5082715;28;20025;-74
2021/07/05 07:29:54;;;;;;;8.40;6.53;;;;;;;22.18;58.56;100012.56;5083100;28;20074;-74
2021/07/05 07:32:19;;;;;;;7.90;6.50;;;;;;;22.13;58.21;100001.44;5082623;28;20028;-74
2021/07/05 07:34:45;;;;;;;9.73;7.10;;;;;;;22.05;59.04;100004.56;5082787;28;20043;-74
2021/07/05 07:37:10;;;;;;;8.10;6.50;;;;;;;22.10;58.66;100004.28;5081465;28;20024;-74
2021/07/05 07:39:48;;;;;;;8.75;6.25;;;;;;;22.19;58.93;99998.41;5084490;28;20074;-74
2021/07/05 07:42:14;;;;;;;7.22;6.38;;;;;;;22.30;58.90;100000.34;5086536;28;20055;-74
2021/07/05 07:44:40;;;;;;;7.72;6.25;;;;;;;22.38;58.74;99998.06;5085149;28;20484;-74
2021/07/05 07:47:06;;;;;;;7.05;6.35;;;;;;;22.58;57.88;99992.41;5086583;28;20020;-73
2021/07/05 07:49:33;;;;;;;10.00;6.30;;;;;;;22.54;58.46;100005.00;5086277;28;20040;-73
2021/07/05 07:52:00;;;;;;;10.70;6.80;;;;;;;22.71;57.97;99988.06;5086346;28;20111;-73
2021/07/05 07:54:25;;;;;;;7.88;6.63;;;;;;;22.87;57.39;99993.19;5086117;28;20024;-74
2021/07/05 07:56:51;;;;;;;8.38;7.47;;;;;;;23.16;56.94;99986.84;5086546;28;20020;-74
2021/07/05 07:59:17;;;;;;;7.55;6.05;;;;;;;23.47;55.83;99983.88;5086142;28;20021;-74
2021/07/05 08:01:42;;;;;;;6.97;6.28;;;;;;;23.74;55.50;99981.09;5086169;28;20017;-71
2021/07/05 08:04:08;;;;;;;9.20;6.80;;;;;;;24.07;54.80;99989.41;5086307;28;20032;-71
2021/07/05 08:06:34;;;;;;;6.80;6.10;;;;;;;24.46;53.82;99973.34;5086149;28;20130;-71
2021/07/05 08:09:01;;;;;;;6.75;5.40;;;;;;;24.91;51.60;99971.84;5086117;28;20028;-71
2021/07/05 08:11:26;;;;;;;10.40;6.82;;;;;;;25.16;51.40;99966.47;5086263;28;20024;-72
2021/07/05 08:13:52;;;;;;;6.57;5.88;;;;;;;25.58;50.78;99977.34;5085843;28;20461;-70
2021/07/05 08:16:17;;;;;;;6.47;5.82;;;;;;;26.05;48.60;99970.19;5086018;28;20023;-69
2021/07/05 08:18:42;;;;;;;7.22;6.10;;;;;;;26.13;48.55;99972.22;5085831;28;20032;-68
2021/07/05 08:21:08;;;;;;;7.82;6.15;;;;;;;26.02;47.49;99960.66;5085668;28;20035;-69
2021/07/05 08:23:33;;;;;;;7.10;5.75;;;;;;;25.62;48.66;99962.03;5085869;28;20028;-71
2021/07/05 08:25:59;;;;;;;6.88;5.97;;;;;;;25.21;49.79;99965.13;5085837;28;20024;-69
2021/07/05 08:28:27;;;;;;;7.45;5.80;;;;;;;24.87;49.72;99954.44;5085907;28;20058;-70
2021/07/05 08:30:57;;;;;;;7.88;5.88;;;;;;;24.58;50.45;99954.81;5085625;28;20020;-71
2021/07/05 08:33:22;;;;;;;7.78;6.25;;;;;;;24.42;50.99;99961.28;5067761;28;20032;-70
2021/07/05 08:35:47;;;;;;;8.93;5.82;;;;;;;24.48;50.88;99955.53;5085656;28;20032;-70
2021/07/05 08:38:13;;;;;;;6.55;5.75;;;;;;;24.60;50.38;99960.88;5085330;28;20024;-70
2021/07/05 08:40:39;;;;;;;8.90;6.40;;;;;;;24.59;50.60;99964.47;5085691;28;20035;-71
2021/07/05 08:43:05;;;;;;;8.45;5.95;;;;;;;24.59;50.63;99956.50;5085372;28;20031;-71
2021/07/05 08:45:30;;;;;;;7.72;5.97;;;;;;;24.65;50.91;99953.41;5085543;28;20028;-71
2021/07/05 08:47:57;;;;;;;7.60;5.32;;;;;;;25.00;50.77;99941.94;5085400;28;20020;-71
2021/07/05 08:50:25;;;;;;;5.93;4.82;;;;;;;25.60;48.83;99948.00;5084694;28;20051;-70
2021/07/05 08:52:51;;;;;;;6.60;5.22;;;;;;;25.79;47.43;99951.84;5085285;28;20392;-70
2021/07/05 08:55:19;;;;;;;5.88;5.07;;;;;;;25.53;47.22;99954.78;5085240;28;20025;-70
2021/07/05 08:57:45;;;;;;;8.13;4.55;;;;;;;25.27;46.63;99944.38;5085303;28;20101;-71
2021/07/05 09:00:15;;;;;;;7.95;5.35;;;;;;;24.91;48.22;99945.28;5085148;28;20032;-71
2021/07/05 09:02:40;;;;;;;5.78;5.07;;;;;;;24.56;48.98;99940.81;5085081;28;20112;-71
2021/07/05 09:05:07;;;;;;;7.45;5.60;;;;;;;24.44;49.84;99948.75;5085066;28;20112;-71
2021/07/05 09:07:33;;;;;;;9.60;5.57;;;;;;;24.16;50.88;99958.75;5084991;28;20076;-70
2021/07/05 09:10:07;;;;;;;7.07;5.70;;;;;;;24.26;51.42;99949.16;5085242;28;20047;-71
2021/07/05 09:12:33;;;;;;;9.40;6.15;;;;;;;24.41;50.98;99943.66;5084846;28;20492;-71
2021/07/05 09:15:05;;;;;;;10.20;6.03;;;;;;;24.44;50.74;99948.75;5083401;28;20092;-71
2021/07/05 09:17:35;;;;;;;8.60;6.03;;;;;;;24.39;51.22;99937.66;5084821;28;20080;-72
2021/07/05 09:20:18;;;;;;;6.55;5.40;;;;;;;24.51;50.68;99934.06;5084755;28;20504;-71
2021/07/05 09:23:12;;;;;;;7.90;6.07;;;;;;;24.46;50.87;99916.78;5084977;28;20051;-71
2021/07/05 09:25:47;;;;;;;7.75;5.93;;;;;;;24.57;50.99;99931.91;5085075;28;20020;-72
2021/07/05 09:28:15;;;;;;;6.72;6.03;;;;;;;24.65;51.45;99926.84;5084751;28;20078;-71
2021/07/05 09:30:44;;;;;;;7.82;5.28;;;;;;;24.76;51.12;99931.38;5083146;28;20457;-71
2021/07/05 09:33:29;;;;;;;7.65;5.80;;;;;;;24.75;50.08;99930.53;5084254;28;20069;-70
2021/07/05 09:36:04;;;;;;;5.30;4.80;;;;;;;24.81;49.52;99929.19;5084250;28;20035;-72
2021/07/05 09:38:36;;;;;;;7.03;5.70;;;;;;;24.53;49.73;99928.66;5084167;28;20107;-70
2021/07/05 09:41:28;;;;;;;6.57;5.68;;;;;;;24.36;49.83;99936.03;5084470;28;20050;-70
2021/07/05 09:44:00;;;;;;;6.47;5.20;;;;;;;24.28;49.97;99914.56;5084512;28;20032;-72
2021/07/05 09:46:55;;;;;;;10.43;6.05;;;;;;;24.33;49.82;99925.66;5084210;28;20020;-70
2021/07/05 09:49:33;;;;;;;7.25;4.90;;;;;;;24.28;49.96;99917.22;5083994;28;20055;-70
2021/07/05 09:52:24;;;;;;;7.90;5.20;;;;;;;24.84;49.19;99913.03;5084105;28;20035;-70
2021/07/05 09:54:54;;;;;;;8.90;4.70;;;;;;;25.51;47.30;99912.38;5083966;28;20024;-71
2021/07/05 09:57:30;;;;;;;5.45;4.57;;;;;;;25.86;46.84;99906.03;5084280;28;20060;-71
2021/07/05 10:00:11;;;;;;;5.47;4.82;;;;;;;26.15;46.90;99901.13;5082550;28;20028;-71
2021/07/05 10:02:36;;;;;;;5.78;5.05;;;;;;;26.34;45.70;99895.16;5083088;28;20048;-70
2021/07/05 10:05:16;;;;;;;7.05;5.25;;;;;;;26.19;45.65;99902.53;5083997;28;20346;-71
2021/07/05 10:07:42;;;;;;;6.78;5.30;;;;;;;26.18;46.00;99904.34;5082425;28;20024;-71
2021/07/05 10:10:11;;;;;;;11.07;5.25;;;;;;;26.15;44.82;99909.94;5083847;28;20020;-71
2021/07/05 10:12:37;;;;;;;6.40;5.05;;;;;;;25.86;45.52;99905.22;5083769;28;20020;-70
2021/07/05 10:15:08;;;;;;;6.55;4.80;;;;;;;25.80;45.76;99898.56;5083818;28;20025;-71
2021/07/05 10:17:36;;;;;;;6.63;4.40;;;;;;;25.62;46.74;99895.59;5083843;28;20028;-71
2021/07/05 10:20:06;;;;;;;5.90;5.03;;;;;;;25.49;46.93;99901.88;5083364;28;20032;-70
2021/07/05 10:22:32;;;;;;;5.05;4.55;;;;;;;25.55;47.53;99894.34;5083736;28;20024;-70
2021/07/05 10:24:57;;;;;;;6.10;4.43;;;;;;;25.89;47.15;99891.66;5084133;28;20027;-71
2021/07/05 10:27:24;;;;;;;5.13;4.63;;;;;;;26.49;45.99;99890.34;5083605;28;20101;-70
2021/07/05 10:29:51;;;;;;;7.53;5.00;;;;;;;26.88;44.14;99888.88;5083667;28;20081;-71
2021/07/05 10:32:19;;;;;;;5.50;4.05;;;;;;;27.00;43.14;99884.34;5083357;28;20434;-70
2021/07/05 10:34:51;;;;;;;4.53;4.05;;;;;;;27.28;42.95;99881.94;5083433;28;20040;-71
2021/07/05 10:37:26;;;;;;;6.70;4.20;;;;;;;27.17;42.64;99870.41;5083820;28;20028;-70
2021/07/05 10:39:52;;;;;;;6.47;4.45;;;;;;;26.76;42.79;99888.13;5083322;28;20485;-71
2021/07/05 10:42:38;;;;;;;6.72;4.85;;;;;;;25.95;45.31;99879.66;5081987;28;20055;-72
2021/07/05 10:45:11;;;;;;;6.25;4.40;;;;;;;25.85;45.45;99874.25;5083343;28;20028;-72
2021/07/05 10:47:39;;;;;;;5.38;4.32;;;;;;;26.24;44.59;99871.94;5082082;28;20094;-70
2021/07/05 10:50:05;;;;;;;10.35;4.10;;;;;;;26.44;44.20;99869.44;5083246;28;20040;-71
2021/07/05 10:52:48;;;;;;;4.95;4.45;;;;;;;26.12;44.95;99857.00;5082048;28;20059;-71
2021/07/05 10:56:02;;;;;;;5.60;4.53;;;;;;;26.15;44.44;99864.72;5083555;28;20044;-71
2021/07/05 10:58:33;;;;;;;5.88;4.60;;;;;;;26.30;44.04;99849.28;5069576;28;20047;-71
2021/07/05 11:01:04;;;;;;;4.47;3.88;;;;;;;26.15;43.42;99848.75;5082011;28;20078;-72
2021/07/05 11:03:39;;;;;;;7.20;4.35;;;;;;;25.81;44.55;99848.91;5083181;28;20021;-71
2021/07/05 11:06:10;;;;;;;4.13;3.72;;;;;;;25.66;45.13;99854.50;5081894;28;20032;-71
2021/07/05 11:08:42;;;;;;;6.20;4.03;;;;;;;25.58;44.46;99847.13;5083340;28;20021;-70
2021/07/05 11:11:28;;;;;;;5.50;4.35;;;;;;;25.28;45.39;99840.66;5082903;28;20029;-70
2021/07/05 11:14:33;;;;;;;6.80;4.47;;;;;;;25.36;45.63;99832.06;5083729;28;20044;-70
2021/07/05 11:17:26;;;;;;;4.20;3.53;;;;;;;25.47;44.80;99831.19;5087108;28;20047;-71
2021/07/05 11:19:59;;;;;;;8.68;4.10;;;;;;;25.22;45.23;99834.03;5079237;28;20033;-71
2021/07/05 11:22:44;;;;;;;5.32;4.20;;;;;;;25.11;45.45;99824.25;5087143;28;20021;-71
2021/07/05 11:25:18;;;;;;;5.07;4.57;;;;;;;25.09;45.69;99825.34;5076299;28;20067;-71
2021/07/05 11:27:52;;;;;;;7.60;4.43;;;;;;;25.13;45.09;99827.63;5086979;28;20033;-72
2021/07/05 11:30:22;;;;;;;6.95;3.95;;;;;;;24.91;45.65;99817.88;5086631;28;20322;-72